sensor_id;sensor_type;location;lat;lon;timestamp;pressure;altitude;pressure_sealevel;temperature;humidity
52511;BME280;63918;51.700;17.998;2022-12-07T00:01:30;99451.13;;;0.59;100.00
52511;BME280;63918;51.700;17.998;2022-12-07T00:03:58;99451.26;;;0.60;100.00
52511;BME280;63918;51.700;17.998;2022-12-07T00:06:35;99446.85;;;0.59;100.00
52511;BME280;63918;51.700;17.998;2022-12-07T00:09:03;99450.53;;;0.59;100.00
52511;BME280;63918;51.700;17.998;2022-12-07T00:11:30;99441.64;;;0.56;100.00
52511;BME280;63918;51.700;17.998;2022-12-07T00:14:00;99440.24;;;0.58;100.00
52511;BME280;63918;51.700;17.998;2022-12-07T00:16:29;99439.17;;;0.60;100.00
52511;BME280;63918;51.700;17.998;2022-12-07T00:18:56;99439.56;;;0.63;100.00
52511;BME280;63918;51.700;17.998;2022-12-07T00:21:26;99440.67;;;0.67;100.00
52511;BME280;63918;51.700;17.998;2022-12-07T00:23:53;99440.75;;;0.71;100.00
52511;BME280;63918;51.700;17.998;2022-12-07T00:26:26;99434.89;;;0.72;100.00
52511;BME280;63918;51.700;17.998;2022-12-07T00:28:55;99434.30;;;0.77;100.00
52511;BME280;63918;51.700;17.998;2022-12-07T00:31:24;99432.97;;;0.82;100.00
52511;BME280;63918;51.700;17.998;2022-12-07T00:33:51;99427.91;;;0.80;100.00
52511;BME280;63918;51.700;17.998;2022-12-07T00:36:21;99435.13;;;0.87;100.00
52511;BME280;63918;51.700;17.998;2022-12-07T00:38:48;99433.96;;;0.90;100.00
52511;BME280;63918;51.700;17.998;2022-12-07T00:41:17;99437.16;;;0.92;100.00
52511;BME280;63918;51.700;17.998;2022-12-07T00:43:44;99434.29;;;0.96;100.00
52511;BME280;63918;51.700;17.998;2022-12-07T00:46:13;99434.08;;;1.04;100.00
52511;BME280;63918;51.700;17.998;2022-12-07T00:48:40;99434.00;;;1.08;100.00
52511;BME280;63918;51.700;17.998;2022-12-07T00:51:07;99433.28;;;1.04;100.00
52511;BME280;63918;51.700;17.998;2022-12-07T00:53:35;99428.19;;;1.03;100.00
52511;BME280;63918;51.700;17.998;2022-12-07T00:56:22;99419.91;;;1.01;100.00
52511;BME280;63918;51.700;17.998;2022-12-07T00:58:58;99419.33;;;1.04;100.00
52511;BME280;63918;51.700;17.998;2022-12-07T01:01:27;99420.80;;;1.06;100.00
52511;BME280;63918;51.700;17.998;2022-12-07T01:03:54;99419.02;;;1.05;100.00
52511;BME280;63918;51.700;17.998;2022-12-07T01:06:22;99418.52;;;1.06;100.00
52511;BME280;63918;51.700;17.998;2022-12-07T01:08:50;99416.04;;;1.06;100.00
52511;BME280;63918;51.700;17.998;2022-12-07T01:11:19;99414.68;;;1.02;100.00
52511;BME280;63918;51.700;17.998;2022-12-07T01:13:46;99412.55;;;0.99;100.00
52511;BME280;63918;51.700;17.998;2022-12-07T01:16:14;99405.05;;;0.91;100.00
52511;BME280;63918;51.700;17.998;2022-12-07T01:18:41;99404.39;;;0.82;100.00
52511;BME280;63918;51.700;17.998;2022-12-07T01:21:16;99406.31;;;0.83;100.00
52511;BME280;63918;51.700;17.998;2022-12-07T01:23:44;99405.02;;;0.82;100.00
52511;BME280;63918;51.700;17.998;2022-12-07T01:26:14;99406.59;;;0.75;100.00
52511;BME280;63918;51.700;17.998;2022-12-07T01:28:41;99404.14;;;0.71;100.00
52511;BME280;63918;51.700;17.998;2022-12-07T01:31:10;99402.73;;;0.75;100.00
52511;BME280;63918;51.700;17.998;2022-12-07T01:33:43;99400.02;;;0.73;100.00
52511;BME280;63918;51.700;17.998;2022-12-07T01:36:25;99387.27;;;0.64;100.00
52511;BME280;63918;51.700;17.998;2022-12-07T01:38:56;99399.50;;;0.71;100.00
52511;BME280;63918;51.700;17.998;2022-12-07T01:41:25;99399.11;;;0.68;100.00
52511;BME280;63918;51.700;17.998;2022-12-07T01:44:12;99397.67;;;0.68;100.00
52511;BME280;63918;51.700;17.998;2022-12-07T01:46:39;99394.54;;;0.75;100.00
52511;BME280;63918;51.700;17.998;2022-12-07T01:49:09;99394.39;;;0.80;100.00
52511;BME280;63918;51.700;17.998;2022-12-07T01:51:37;99393.35;;;0.81;100.00
52511;BME280;63918;51.700;17.998;2022-12-07T01:54:07;99390.95;;;0.84;100.00
52511;BME280;63918;51.700;17.998;2022-12-07T01:56:33;99389.51;;;0.84;100.00
52511;BME280;63918;51.700;17.998;2022-12-07T01:59:00;99392.52;;;0.87;100.00
52511;BME280;63918;51.700;17.998;2022-12-07T02:01:27;99393.16;;;0.90;100.00
52511;BME280;63918;51.700;17.998;2022-12-07T02:03:54;99391.45;;;0.98;100.00
52511;BME280;63918;51.700;17.998;2022-12-07T02:06:24;99392.10;;;1.06;100.00
52511;BME280;63918;51.700;17.998;2022-12-07T02:08:51;99391.10;;;1.15;100.00
52511;BME280;63918;51.700;17.998;2022-12-07T02:11:19;99391.48;;;1.19;100.00
52511;BME280;63918;51.700;17.998;2022-12-07T02:13:46;99392.70;;;1.24;100.00
52511;BME280;63918;51.700;17.998;2022-12-07T02:21:45;99390.08;;;1.35;100.00
52511;BME280;63918;51.700;17.998;2022-12-07T02:24:45;99390.00;;;1.36;100.00
52511;BME280;63918;51.700;17.998;2022-12-07T02:30:08;99380.91;;;1.40;100.00
52511;BME280;63918;51.700;17.998;2022-12-07T02:35:17;99378.52;;;1.41;100.00
52511;BME280;63918;51.700;17.998;2022-12-07T02:38:18;99377.36;;;1.42;100.00
52511;BME280;63918;51.700;17.998;2022-12-07T02:40:55;99372.30;;;1.42;100.00
52511;BME280;63918;51.700;17.998;2022-12-07T02:43:27;99368.96;;;1.42;100.00
52511;BME280;63918;51.700;17.998;2022-12-07T02:46:02;99366.24;;;1.42;100.00
52511;BME280;63918;51.700;17.998;2022-12-07T02:48:31;99367.52;;;1.47;100.00
52511;BME280;63918;51.700;17.998;2022-12-07T02:50:59;99365.05;;;1.44;100.00
52511;BME280;63918;51.700;17.998;2022-12-07T02:53:34;99367.52;;;1.46;100.00
52511;BME280;63918;51.700;17.998;2022-12-07T02:58:58;99361.70;;;1.46;100.00
52511;BME280;63918;51.700;17.998;2022-12-07T03:02:06;99358.57;;;1.46;100.00
52511;BME280;63918;51.700;17.998;2022-12-07T03:08:01;99362.26;;;1.46;100.00
52511;BME280;63918;51.700;17.998;2022-12-07T03:11:13;99361.54;;;1.46;100.00
52511;BME280;63918;51.700;17.998;2022-12-07T03:13:25;99368.57;;;1.43;100.00
52511;BME280;63918;51.700;17.998;2022-12-07T03:18:51;99370.58;;;1.48;100.00
52511;BME280;63918;51.700;17.998;2022-12-07T03:21:26;99369.55;;;1.47;100.00
52511;BME280;63918;51.700;17.998;2022-12-07T03:23:56;99365.10;;;1.47;100.00
52511;BME280;63918;51.700;17.998;2022-12-07T03:26:30;99365.35;;;1.49;100.00
52511;BME280;63918;51.700;17.998;2022-12-07T03:29:01;99367.25;;;1.48;100.00
52511;BME280;63918;51.700;17.998;2022-12-07T03:31:34;99362.67;;;1.49;100.00
52511;BME280;63918;51.700;17.998;2022-12-07T03:34:09;99361.97;;;1.49;100.00
52511;BME280;63918;51.700;17.998;2022-12-07T03:36:47;99362.20;;;1.50;100.00
52511;BME280;63918;51.700;17.998;2022-12-07T03:39:27;99356.71;;;1.54;100.00
52511;BME280;63918;51.700;17.998;2022-12-07T03:41:59;99356.04;;;1.52;100.00
52511;BME280;63918;51.700;17.998;2022-12-07T03:44:27;99354.80;;;1.51;100.00
52511;BME280;63918;51.700;17.998;2022-12-07T03:47:00;99352.65;;;1.51;100.00
52511;BME280;63918;51.700;17.998;2022-12-07T03:49:43;99354.91;;;1.51;100.00
52511;BME280;63918;51.700;17.998;2022-12-07T03:52:36;99348.19;;;1.50;100.00
52511;BME280;63918;51.700;17.998;2022-12-07T03:55:11;99347.38;;;1.49;100.00
52511;BME280;63918;51.700;17.998;2022-12-07T03:57:42;99348.42;;;1.49;100.00
52511;BME280;63918;51.700;17.998;2022-12-07T04:00:11;99349.67;;;1.50;100.00
52511;BME280;63918;51.700;17.998;2022-12-07T04:02:38;99343.40;;;1.51;100.00
52511;BME280;63918;51.700;17.998;2022-12-07T04:05:05;99339.82;;;1.52;100.00
52511;BME280;63918;51.700;17.998;2022-12-07T04:07:32;99340.23;;;1.52;100.00
52511;BME280;63918;51.700;17.998;2022-12-07T04:09:59;99339.36;;;1.53;100.00
52511;BME280;63918;51.700;17.998;2022-12-07T04:12:25;99340.45;;;1.52;100.00
52511;BME280;63918;51.700;17.998;2022-12-07T04:14:52;99344.40;;;1.51;100.00
52511;BME280;63918;51.700;17.998;2022-12-07T04:17:18;99342.59;;;1.52;100.00
52511;BME280;63918;51.700;17.998;2022-12-07T04:19:45;99334.86;;;1.50;100.00
52511;BME280;63918;51.700;17.998;2022-12-07T04:22:11;99337.34;;;1.54;100.00
52511;BME280;63918;51.700;17.998;2022-12-07T04:24:38;99335.25;;;1.54;100.00
52511;BME280;63918;51.700;17.998;2022-12-07T04:27:05;99330.23;;;1.51;100.00
52511;BME280;63918;51.700;17.998;2022-12-07T04:29:31;99338.08;;;1.56;100.00
52511;BME280;63918;51.700;17.998;2022-12-07T04:31:58;99333.84;;;1.56;100.00
52511;BME280;63918;51.700;17.998;2022-12-07T04:34:24;99337.23;;;1.57;100.00
52511;BME280;63918;51.700;17.998;2022-12-07T04:36:51;99333.84;;;1.59;100.00
52511;BME280;63918;51.700;17.998;2022-12-07T04:39:21;99334.19;;;1.61;100.00
52511;BME280;63918;51.700;17.998;2022-12-07T04:41:48;99330.27;;;1.63;100.00
52511;BME280;63918;51.700;17.998;2022-12-07T04:44:15;99332.38;;;1.61;100.00
52511;BME280;63918;51.700;17.998;2022-12-07T04:46:42;99330.48;;;1.59;100.00
52511;BME280;63918;51.700;17.998;2022-12-07T04:49:10;99336.91;;;1.57;100.00
52511;BME280;63918;51.700;17.998;2022-12-07T04:51:37;99336.54;;;1.60;100.00
52511;BME280;63918;51.700;17.998;2022-12-07T04:54:04;99338.05;;;1.61;100.00
52511;BME280;63918;51.700;17.998;2022-12-07T04:56:30;99338.62;;;1.60;100.00
52511;BME280;63918;51.700;17.998;2022-12-07T04:58:57;99340.30;;;1.58;100.00
52511;BME280;63918;51.700;17.998;2022-12-07T05:01:24;99340.08;;;1.52;100.00
52511;BME280;63918;51.700;17.998;2022-12-07T05:03:50;99336.88;;;1.52;100.00
52511;BME280;63918;51.700;17.998;2022-12-07T05:06:17;99338.54;;;1.52;100.00
52511;BME280;63918;51.700;17.998;2022-12-07T05:08:43;99336.77;;;1.51;100.00
52511;BME280;63918;51.700;17.998;2022-12-07T05:11:10;99335.48;;;1.51;100.00
52511;BME280;63918;51.700;17.998;2022-12-07T05:14:01;99334.23;;;1.45;100.00
52511;BME280;63918;51.700;17.998;2022-12-07T05:16:27;99333.30;;;1.43;100.00
52511;BME280;63918;51.700;17.998;2022-12-07T05:18:54;99328.93;;;1.41;100.00
52511;BME280;63918;51.700;17.998;2022-12-07T05:21:21;99333.48;;;1.42;100.00
52511;BME280;63918;51.700;17.998;2022-12-07T05:23:47;99335.56;;;1.41;100.00
52511;BME280;63918;51.700;17.998;2022-12-07T05:26:14;99336.43;;;1.41;100.00
52511;BME280;63918;51.700;17.998;2022-12-07T05:28:41;99340.91;;;1.41;100.00
52511;BME280;63918;51.700;17.998;2022-12-07T05:31:07;99340.78;;;1.36;100.00
52511;BME280;63918;51.700;17.998;2022-12-07T05:33:34;99338.40;;;1.35;100.00
52511;BME280;63918;51.700;17.998;2022-12-07T05:36:00;99336.73;;;1.34;100.00
52511;BME280;63918;51.700;17.998;2022-12-07T05:38:32;99340.73;;;1.31;100.00
52511;BME280;63918;51.700;17.998;2022-12-07T05:41:01;99343.32;;;1.33;100.00
52511;BME280;63918;51.700;17.998;2022-12-07T05:43:28;99342.88;;;1.34;100.00
52511;BME280;63918;51.700;17.998;2022-12-07T05:45:55;99342.62;;;1.35;100.00
52511;BME280;63918;51.700;17.998;2022-12-07T05:48:22;99346.85;;;1.32;100.00
52511;BME280;63918;51.700;17.998;2022-12-07T05:50:49;99344.14;;;1.27;100.00
52511;BME280;63918;51.700;17.998;2022-12-07T05:53:16;99344.95;;;1.28;100.00
52511;BME280;63918;51.700;17.998;2022-12-07T05:55:43;99351.69;;;1.31;100.00
52511;BME280;63918;51.700;17.998;2022-12-07T05:58:10;99346.05;;;1.27;100.00
52511;BME280;63918;51.700;17.998;2022-12-07T06:00:56;99343.36;;;1.26;100.00
52511;BME280;63918;51.700;17.998;2022-12-07T06:03:22;99338.34;;;1.26;100.00
52511;BME280;63918;51.700;17.998;2022-12-07T06:05:49;99334.25;;;1.25;100.00
52511;BME280;63918;51.700;17.998;2022-12-07T06:08:15;99332.69;;;1.27;100.00
52511;BME280;63918;51.700;17.998;2022-12-07T06:10:42;99334.30;;;1.30;100.00
52511;BME280;63918;51.700;17.998;2022-12-07T06:13:09;99334.58;;;1.30;100.00
52511;BME280;63918;51.700;17.998;2022-12-07T06:15:36;99337.75;;;1.26;100.00
52511;BME280;63918;51.700;17.998;2022-12-07T06:18:02;99337.89;;;1.28;100.00
52511;BME280;63918;51.700;17.998;2022-12-07T06:20:29;99336.33;;;1.27;100.00
52511;BME280;63918;51.700;17.998;2022-12-07T06:22:55;99331.43;;;1.25;100.00
52511;BME280;63918;51.700;17.998;2022-12-07T06:25:22;99326.69;;;1.30;100.00
52511;BME280;63918;51.700;17.998;2022-12-07T06:27:48;99325.27;;;1.31;100.00
52511;BME280;63918;51.700;17.998;2022-12-07T06:30:15;99325.15;;;1.34;100.00
52511;BME280;63918;51.700;17.998;2022-12-07T06:32:41;99327.61;;;1.34;100.00
52511;BME280;63918;51.700;17.998;2022-12-07T06:35:08;99325.41;;;1.35;100.00
52511;BME280;63918;51.700;17.998;2022-12-07T06:37:34;99327.77;;;1.36;100.00
52511;BME280;63918;51.700;17.998;2022-12-07T06:40:00;99333.16;;;1.38;100.00
52511;BME280;63918;51.700;17.998;2022-12-07T06:42:27;99330.77;;;1.33;100.00
52511;BME280;63918;51.700;17.998;2022-12-07T06:44:53;99330.83;;;1.34;100.00
52511;BME280;63918;51.700;17.998;2022-12-07T06:47:20;99331.59;;;1.34;100.00
52511;BME280;63918;51.700;17.998;2022-12-07T06:49:46;99328.22;;;1.34;100.00
52511;BME280;63918;51.700;17.998;2022-12-07T06:52:13;99332.81;;;1.34;100.00
52511;BME280;63918;51.700;17.998;2022-12-07T06:54:39;99330.59;;;1.39;100.00
52511;BME280;63918;51.700;17.998;2022-12-07T06:57:06;99333.72;;;1.39;100.00
52511;BME280;63918;51.700;17.998;2022-12-07T06:59:32;99329.94;;;1.35;100.00
52511;BME280;63918;51.700;17.998;2022-12-07T07:01:58;99334.21;;;1.40;100.00
52511;BME280;63918;51.700;17.998;2022-12-07T07:04:25;99339.90;;;1.42;100.00
52511;BME280;63918;51.700;17.998;2022-12-07T07:06:51;99333.41;;;1.38;100.00
52511;BME280;63918;51.700;17.998;2022-12-07T07:09:18;99336.91;;;1.41;100.00
52511;BME280;63918;51.700;17.998;2022-12-07T07:11:44;99336.09;;;1.38;100.00
52511;BME280;63918;51.700;17.998;2022-12-07T07:14:11;99335.46;;;1.33;100.00
52511;BME280;63918;51.700;17.998;2022-12-07T07:16:38;99341.88;;;1.35;100.00
52511;BME280;63918;51.700;17.998;2022-12-07T07:19:04;99337.54;;;1.38;100.00
52511;BME280;63918;51.700;17.998;2022-12-07T07:21:31;99337.92;;;1.38;100.00
52511;BME280;63918;51.700;17.998;2022-12-07T07:23:57;99334.66;;;1.35;100.00
52511;BME280;63918;51.700;17.998;2022-12-07T07:26:24;99331.98;;;1.36;100.00
52511;BME280;63918;51.700;17.998;2022-12-07T07:28:50;99332.70;;;1.37;100.00
52511;BME280;63918;51.700;17.998;2022-12-07T07:31:17;99331.67;;;1.33;100.00
52511;BME280;63918;51.700;17.998;2022-12-07T07:33:45;99331.18;;;1.33;100.00
52511;BME280;63918;51.700;17.998;2022-12-07T07:36:12;99328.11;;;1.25;100.00
52511;BME280;63918;51.700;17.998;2022-12-07T07:38:39;99324.64;;;1.29;100.00
52511;BME280;63918;51.700;17.998;2022-12-07T07:41:05;99329.64;;;1.27;100.00
52511;BME280;63918;51.700;17.998;2022-12-07T07:43:32;99327.67;;;1.28;100.00
52511;BME280;63918;51.700;17.998;2022-12-07T07:45:59;99330.00;;;1.29;100.00
52511;BME280;63918;51.700;17.998;2022-12-07T07:48:25;99328.17;;;1.26;100.00
52511;BME280;63918;51.700;17.998;2022-12-07T07:50:52;99329.73;;;1.29;100.00
52511;BME280;63918;51.700;17.998;2022-12-07T07:53:18;99323.38;;;1.29;100.00
52511;BME280;63918;51.700;17.998;2022-12-07T07:55:52;99325.63;;;1.33;100.00
52511;BME280;63918;51.700;17.998;2022-12-07T07:58:20;99329.84;;;1.32;100.00
52511;BME280;63918;51.700;17.998;2022-12-07T08:00:47;99329.17;;;1.36;100.00
52511;BME280;63918;51.700;17.998;2022-12-07T08:03:13;99328.20;;;1.37;100.00
52511;BME280;63918;51.700;17.998;2022-12-07T08:05:46;99332.76;;;1.43;100.00
52511;BME280;63918;51.700;17.998;2022-12-07T08:08:12;99333.46;;;1.37;100.00
52511;BME280;63918;51.700;17.998;2022-12-07T08:10:39;99330.75;;;1.39;100.00
52511;BME280;63918;51.700;17.998;2022-12-07T08:13:06;99330.80;;;1.41;100.00
52511;BME280;63918;51.700;17.998;2022-12-07T08:15:42;99331.40;;;1.38;100.00
52511;BME280;63918;51.700;17.998;2022-12-07T08:18:09;99329.56;;;1.34;100.00
52511;BME280;63918;51.700;17.998;2022-12-07T08:20:37;99327.65;;;1.35;100.00
52511;BME280;63918;51.700;17.998;2022-12-07T08:23:05;99325.13;;;1.35;100.00
52511;BME280;63918;51.700;17.998;2022-12-07T08:25:32;99325.95;;;1.39;100.00
52511;BME280;63918;51.700;17.998;2022-12-07T08:27:59;99321.76;;;1.38;100.00
52511;BME280;63918;51.700;17.998;2022-12-07T08:30:28;99322.52;;;1.36;100.00
52511;BME280;63918;51.700;17.998;2022-12-07T08:32:55;99321.97;;;1.35;100.00
52511;BME280;63918;51.700;17.998;2022-12-07T08:35:22;99322.38;;;1.36;100.00
52511;BME280;63918;51.700;17.998;2022-12-07T08:37:49;99320.97;;;1.33;100.00
52511;BME280;63918;51.700;17.998;2022-12-07T08:40:16;99324.48;;;1.37;100.00
52511;BME280;63918;51.700;17.998;2022-12-07T08:42:49;99329.02;;;1.37;100.00
52511;BME280;63918;51.700;17.998;2022-12-07T08:45:17;99336.48;;;1.39;100.00
52511;BME280;63918;51.700;17.998;2022-12-07T08:48:03;99337.27;;;1.35;100.00
52511;BME280;63918;51.700;17.998;2022-12-07T08:50:32;99334.49;;;1.41;100.00
52511;BME280;63918;51.700;17.998;2022-12-07T08:53:00;99332.27;;;1.45;100.00
52511;BME280;63918;51.700;17.998;2022-12-07T08:55:27;99336.29;;;1.45;100.00
52511;BME280;63918;51.700;17.998;2022-12-07T08:57:55;99327.80;;;1.44;100.00
52511;BME280;63918;51.700;17.998;2022-12-07T09:00:23;99325.33;;;1.40;100.00
52511;BME280;63918;51.700;17.998;2022-12-07T09:02:49;99324.95;;;1.35;100.00
52511;BME280;63918;51.700;17.998;2022-12-07T09:05:16;99327.89;;;1.25;100.00
52511;BME280;63918;51.700;17.998;2022-12-07T09:07:45;99331.09;;;1.24;100.00
52511;BME280;63918;51.700;17.998;2022-12-07T09:10:12;99326.39;;;1.34;100.00
52511;BME280;63918;51.700;17.998;2022-12-07T09:12:39;99323.05;;;1.29;100.00
52511;BME280;63918;51.700;17.998;2022-12-07T09:15:06;99315.52;;;1.34;100.00
52511;BME280;63918;51.700;17.998;2022-12-07T09:17:33;99314.09;;;1.37;100.00
52511;BME280;63918;51.700;17.998;2022-12-07T09:20:00;99310.47;;;1.44;100.00
52511;BME280;63918;51.700;17.998;2022-12-07T09:22:30;99315.14;;;1.48;100.00
52511;BME280;63918;51.700;17.998;2022-12-07T09:25:00;99312.00;;;1.43;100.00
52511;BME280;63918;51.700;17.998;2022-12-07T09:27:27;99312.73;;;1.42;100.00
52511;BME280;63918;51.700;17.998;2022-12-07T09:29:53;99310.84;;;1.51;100.00
52511;BME280;63918;51.700;17.998;2022-12-07T09:32:20;99312.52;;;1.65;100.00
52511;BME280;63918;51.700;17.998;2022-12-07T09:34:46;99306.92;;;1.59;100.00
52511;BME280;63918;51.700;17.998;2022-12-07T09:37:13;99303.40;;;1.57;100.00
52511;BME280;63918;51.700;17.998;2022-12-07T09:39:40;99305.67;;;1.55;100.00
52511;BME280;63918;51.700;17.998;2022-12-07T09:42:07;99297.95;;;1.51;100.00
52511;BME280;63918;51.700;17.998;2022-12-07T09:44:35;99300.54;;;1.46;100.00
52511;BME280;63918;51.700;17.998;2022-12-07T09:47:02;99296.91;;;1.53;100.00
52511;BME280;63918;51.700;17.998;2022-12-07T09:49:31;99299.73;;;1.49;100.00
52511;BME280;63918;51.700;17.998;2022-12-07T09:52:49;99299.38;;;1.53;100.00
52511;BME280;63918;51.700;17.998;2022-12-07T09:54:50;99298.45;;;1.55;100.00
52511;BME280;63918;51.700;17.998;2022-12-07T09:57:18;99299.11;;;1.59;100.00
52511;BME280;63918;51.700;17.998;2022-12-07T09:59:47;99297.13;;;1.63;100.00
52511;BME280;63918;51.700;17.998;2022-12-07T10:02:33;99292.44;;;1.70;100.00
52511;BME280;63918;51.700;17.998;2022-12-07T10:05:01;99289.18;;;1.72;100.00
52511;BME280;63918;51.700;17.998;2022-12-07T10:07:29;99291.27;;;1.74;100.00
52511;BME280;63918;51.700;17.998;2022-12-07T10:09:56;99280.05;;;1.87;100.00
52511;BME280;63918;51.700;17.998;2022-12-07T10:12:22;99275.73;;;2.03;100.00
52511;BME280;63918;51.700;17.998;2022-12-07T10:14:55;99271.55;;;1.96;100.00
52511;BME280;63918;51.700;17.998;2022-12-07T10:17:30;99267.43;;;2.07;100.00
52511;BME280;63918;51.700;17.998;2022-12-07T10:22:55;99256.68;;;2.20;100.00
52511;BME280;63918;51.700;17.998;2022-12-07T10:25:26;99249.78;;;2.09;100.00
52511;BME280;63918;51.700;17.998;2022-12-07T10:28:09;99249.23;;;2.11;100.00
52511;BME280;63918;51.700;17.998;2022-12-07T10:30:59;99242.08;;;2.13;100.00
52511;BME280;63918;51.700;17.998;2022-12-07T10:33:38;99235.13;;;2.18;100.00
52511;BME280;63918;51.700;17.998;2022-12-07T10:36:18;99237.33;;;2.40;100.00
52511;BME280;63918;51.700;17.998;2022-12-07T10:38:58;99239.39;;;2.34;100.00
52511;BME280;63918;51.700;17.998;2022-12-07T10:41:26;99234.28;;;2.41;100.00
52511;BME280;63918;51.700;17.998;2022-12-07T10:43:55;99235.23;;;2.36;100.00
52511;BME280;63918;51.700;17.998;2022-12-07T10:46:45;99229.34;;;2.35;100.00
52511;BME280;63918;51.700;17.998;2022-12-07T10:49:39;99230.55;;;2.61;100.00
52511;BME280;63918;51.700;17.998;2022-12-07T10:52:43;99222.63;;;2.49;100.00
52511;BME280;63918;51.700;17.998;2022-12-07T10:55:20;99215.34;;;2.53;100.00
52511;BME280;63918;51.700;17.998;2022-12-07T11:00:58;99208.95;;;2.61;100.00
52511;BME280;63918;51.700;17.998;2022-12-07T11:03:46;99203.93;;;2.65;100.00
52511;BME280;63918;51.700;17.998;2022-12-07T11:06:39;99203.20;;;2.65;100.00
52511;BME280;63918;51.700;17.998;2022-12-07T11:09:43;99195.58;;;2.59;100.00
52511;BME280;63918;51.700;17.998;2022-12-07T11:15:08;99202.80;;;2.35;100.00
52511;BME280;63918;51.700;17.998;2022-12-07T11:29:26;99189.46;;;2.04;100.00
52511;BME280;63918;51.700;17.998;2022-12-07T11:37:59;99176.52;;;2.06;100.00
52511;BME280;63918;51.700;17.998;2022-12-07T11:40:33;99172.86;;;2.03;100.00
52511;BME280;63918;51.700;17.998;2022-12-07T11:43:13;99179.11;;;2.00;100.00
52511;BME280;63918;51.700;17.998;2022-12-07T11:45:44;99181.55;;;2.01;100.00
52511;BME280;63918;51.700;17.998;2022-12-07T11:48:46;99176.22;;;1.96;100.00
52511;BME280;63918;51.700;17.998;2022-12-07T11:51:19;99173.13;;;1.96;100.00
52511;BME280;63918;51.700;17.998;2022-12-07T11:53:57;99171.57;;;1.92;100.00
52511;BME280;63918;51.700;17.998;2022-12-07T11:56:28;99168.84;;;1.87;100.00
52511;BME280;63918;51.700;17.998;2022-12-07T12:06:43;99168.86;;;1.82;100.00
52511;BME280;63918;51.700;17.998;2022-12-07T12:09:22;99168.98;;;1.84;100.00
52511;BME280;63918;51.700;17.998;2022-12-07T12:12:01;99167.39;;;1.87;100.00
52511;BME280;63918;51.700;17.998;2022-12-07T12:23:14;99167.39;;;1.91;100.00
52511;BME280;63918;51.700;17.998;2022-12-07T12:25:47;99157.63;;;1.94;100.00
52511;BME280;63918;51.700;17.998;2022-12-07T12:31:09;99153.09;;;1.95;100.00
52511;BME280;63918;51.700;17.998;2022-12-07T12:33:37;99153.76;;;1.98;100.00
52511;BME280;63918;51.700;17.998;2022-12-07T12:38:52;99151.52;;;2.01;100.00
52511;BME280;63918;51.700;17.998;2022-12-07T12:41:52;99149.60;;;2.08;100.00
52511;BME280;63918;51.700;17.998;2022-12-07T12:46:55;99142.64;;;2.12;100.00
52511;BME280;63918;51.700;17.998;2022-12-07T12:51:53;99139.96;;;2.22;100.00
52511;BME280;63918;51.700;17.998;2022-12-07T12:54:31;99140.73;;;2.28;100.00
52511;BME280;63918;51.700;17.998;2022-12-07T12:57:15;99132.96;;;2.32;100.00
52511;BME280;63918;51.700;17.998;2022-12-07T13:02:25;99133.84;;;2.41;100.00
52511;BME280;63918;51.700;17.998;2022-12-07T13:13:02;99135.98;;;2.36;100.00
52511;BME280;63918;51.700;17.998;2022-12-07T13:15:36;99134.88;;;2.42;100.00
52511;BME280;63918;51.700;17.998;2022-12-07T13:18:23;99133.55;;;2.43;100.00
52511;BME280;63918;51.700;17.998;2022-12-07T13:20:55;99132.46;;;2.42;100.00
52511;BME280;63918;51.700;17.998;2022-12-07T13:26:16;99134.48;;;2.45;100.00
52511;BME280;63918;51.700;17.998;2022-12-07T13:29:09;99134.17;;;2.47;100.00
52511;BME280;63918;51.700;17.998;2022-12-07T13:31:48;99134.33;;;2.47;100.00
52511;BME280;63918;51.700;17.998;2022-12-07T13:34:40;99133.67;;;2.45;100.00
52511;BME280;63918;51.700;17.998;2022-12-07T13:39:58;99135.38;;;2.44;100.00
52511;BME280;63918;51.700;17.998;2022-12-07T13:44:54;99131.13;;;2.48;100.00
52511;BME280;63918;51.700;17.998;2022-12-07T13:47:41;99134.45;;;2.53;100.00
52511;BME280;63918;51.700;17.998;2022-12-07T13:50:28;99130.17;;;2.54;100.00
52511;BME280;63918;51.700;17.998;2022-12-07T13:53:00;99125.45;;;2.47;100.00
52511;BME280;63918;51.700;17.998;2022-12-07T13:55:30;99132.83;;;2.52;100.00
52511;BME280;63918;51.700;17.998;2022-12-07T13:57:56;99134.23;;;2.52;100.00
52511;BME280;63918;51.700;17.998;2022-12-07T14:00:25;99133.47;;;2.51;100.00
52511;BME280;63918;51.700;17.998;2022-12-07T14:05:29;99135.00;;;2.48;100.00
52511;BME280;63918;51.700;17.998;2022-12-07T14:08:01;99142.27;;;2.48;100.00
52511;BME280;63918;51.700;17.998;2022-12-07T14:10:52;99141.59;;;2.50;100.00
52511;BME280;63918;51.700;17.998;2022-12-07T14:16:22;99137.25;;;2.44;100.00
52511;BME280;63918;51.700;17.998;2022-12-07T14:18:50;99137.14;;;2.44;100.00
52511;BME280;63918;51.700;17.998;2022-12-07T14:21:21;99129.09;;;2.43;100.00
52511;BME280;63918;51.700;17.998;2022-12-07T14:24:12;99130.11;;;2.44;100.00
52511;BME280;63918;51.700;17.998;2022-12-07T14:26:43;99125.69;;;2.40;100.00
52511;BME280;63918;51.700;17.998;2022-12-07T14:31:52;99128.09;;;2.44;100.00
52511;BME280;63918;51.700;17.998;2022-12-07T14:34:23;99129.78;;;2.42;100.00
52511;BME280;63918;51.700;17.998;2022-12-07T14:36:50;99123.38;;;2.41;100.00
52511;BME280;63918;51.700;17.998;2022-12-07T14:39:17;99128.29;;;2.43;100.00
52511;BME280;63918;51.700;17.998;2022-12-07T14:41:43;99125.02;;;2.43;100.00
52511;BME280;63918;51.700;17.998;2022-12-07T14:44:21;99130.84;;;2.35;100.00
52511;BME280;63918;51.700;17.998;2022-12-07T14:46:51;99135.04;;;2.26;100.00
52511;BME280;63918;51.700;17.998;2022-12-07T14:49:18;99132.71;;;2.20;100.00
52511;BME280;63918;51.700;17.998;2022-12-07T14:51:46;99135.89;;;2.18;100.00